Time;durP1;ratioP1;P1;durP2;ratioP2;P2;SDS_P1;SDS_P2;PMS_P1;PMS_P2;Temp;Humidity;BMP_temperature;BMP_pressure;BME280_temperature;BME280_humidity;BME280_pressure;Samples;Min_cycle;Max_cycle;Signal;HPM_P1;HPM_P2
2021/12/09 00:00:16;;;;;;;7.03;3.58;;;;;;;0.72;100.00;99989.88;2065509;28;20030;-65
2021/12/09 00:01:22;;;;;;;5.45;3.75;;;;;;;0.70;100.00;99983.94;2067147;28;20022;-66
2021/12/09 00:02:24;;;;;;;7.35;3.33;;;;;;;0.67;100.00;99989.09;2074318;28;20106;-65
2021/12/09 00:03:24;;;;;;;;;;;;;;;0.67;100.00;99988.25;2074522;28;20109;-64
2021/12/09 00:04:29;;;;;;;6.25;3.10;;;;;;;0.69;100.00;99989.09;2074299;28;19909;-66
2021/12/09 00:05:30;;;;;;;7.88;3.72;;;;;;;0.70;100.00;99989.06;2065439;28;20094;-65
2021/12/09 00:06:31;;;;;;;8.02;4.07;;;;;;;0.68;100.00;99985.66;2065614;28;20032;-64
2021/12/09 00:07:32;;;;;;;11.05;4.28;;;;;;;0.76;100.00;99993.25;2074182;28;20046;-65
2021/12/09 00:08:33;;;;;;;7.13;3.93;;;;;;;0.77;100.00;99985.53;2074112;28;20383;-65
2021/12/09 00:09:33;;;;;;;8.32;3.55;;;;;;;0.79;100.00;99982.09;2074154;28;20024;-64
2021/12/09 00:10:34;;;;;;;8.07;3.63;;;;;;;0.77;100.00;99990.66;2074197;28;20029;-64
2021/12/09 00:11:46;;;;;;;8.32;4.10;;;;;;;0.74;100.00;99988.13;2074168;28;20053;-64
2021/12/09 00:12:46;;;;;;;5.75;4.07;;;;;;;0.69;100.00;99987.38;2074147;28;20133;-64
2021/12/09 00:13:47;;;;;;;6.93;3.83;;;;;;;0.71;100.00;99988.19;2074195;28;20030;-65
2021/12/09 00:14:48;;;;;;;7.03;3.25;;;;;;;0.76;100.00;99988.94;2074216;28;20380;-63
2021/12/09 00:15:49;;;;;;;7.67;4.17;;;;;;;0.76;100.00;99988.94;2074099;28;20033;-64
2021/12/09 00:16:51;;;;;;;7.35;4.18;;;;;;;0.74;100.00;99993.28;2065415;28;20018;-65
2021/12/09 00:17:51;;;;;;;11.70;3.97;;;;;;;0.71;100.00;99982.19;2065512;28;20018;-64
2021/12/09 00:18:51;;;;;;;7.53;3.77;;;;;;;0.70;100.00;99998.47;2074121;28;20478;-64
2021/12/09 00:19:52;;;;;;;7.40;3.60;;;;;;;0.67;100.00;100001.94;2074154;28;20021;-64
2021/12/09 00:20:52;;;;;;;7.37;3.47;;;;;;;0.67;100.00;99999.38;2074133;28;20018;-65
2021/12/09 00:21:53;;;;;;;6.43;3.22;;;;;;;0.64;100.00;99997.72;2074118;28;20463;-65
2021/12/09 00:22:53;;;;;;;8.03;3.10;;;;;;;0.69;100.00;99996.78;2065333;28;20028;-64
2021/12/09 00:23:53;;;;;;;7.13;3.50;;;;;;;0.67;100.00;99989.09;2065402;28;20019;-65
2021/12/09 00:24:54;;;;;;;6.67;3.33;;;;;;;0.65;100.00;99988.25;2074093;28;20026;-65
2021/12/09 00:25:54;;;;;;;8.13;3.50;;;;;;;0.62;100.00;99983.19;2074057;28;20025;-65
2021/12/09 00:26:55;;;;;;;7.70;3.40;;;;;;;0.60;100.00;99996.06;2074090;28;20379;-64
2021/12/09 00:27:55;;;;;;;9.67;3.67;;;;;;;0.57;100.00;99993.53;2073934;28;20025;-64
2021/12/09 00:28:56;;;;;;;9.10;3.80;;;;;;;0.58;100.00;99990.06;2073989;28;20034;-66
2021/12/09 00:29:56;;;;;;;7.68;3.45;;;;;;;0.57;100.00;99997.81;2074049;28;20098;-65
2021/12/09 00:30:57;;;;;;;7.80;3.33;;;;;;;0.57;100.00;99992.66;2065252;28;20341;-65
2021/12/09 00:31:57;;;;;;;6.87;3.63;;;;;;;0.59;100.00;99998.63;2065192;28;20483;-64
2021/12/09 00:32:59;;;;;;;5.53;3.30;;;;;;;0.63;100.00;100002.88;2065241;28;20022;-64
2021/12/09 00:34:01;;;;;;;6.53;3.67;;;;;;;0.58;100.00;100004.66;2065197;28;20098;-64
2021/12/09 00:35:03;;;;;;;5.85;4.10;;;;;;;0.64;100.00;100000.28;2065198;28;20537;-64
2021/12/09 00:36:03;;;;;;;6.93;3.90;;;;;;;0.67;100.00;99999.38;2065471;28;20065;-62
2021/12/09 00:37:21;;;;;;;7.90;3.73;;;;;;;0.68;100.00;99993.34;2074004;28;20032;-64
2021/12/09 00:38:38;;;;;;;5.38;2.90;;;;;;;0.69;100.00;99997.66;2073990;28;20459;-65
2021/12/09 00:39:40;;;;;;;7.70;3.35;;;;;;;0.74;100.00;100000.97;2073892;28;20542;-66
2021/12/09 00:40:41;;;;;;;4.88;3.58;;;;;;;0.71;100.00;99989.88;2065163;28;20515;-65
2021/12/09 00:41:41;;;;;;;7.33;3.13;;;;;;;0.68;100.00;99988.22;2065290;28;20050;-65
2021/12/09 00:42:41;;;;;;;8.60;3.70;;;;;;;0.65;100.00;100003.66;2065230;28;20125;-64
2021/12/09 00:43:42;;;;;;;7.27;3.53;;;;;;;0.67;100.00;99996.81;2065258;28;20033;-64
2021/12/09 00:44:42;;;;;;;10.98;4.47;;;;;;;0.69;100.00;99989.94;2065000;28;20529;-63
2021/12/09 00:45:44;;;;;;;5.67;3.30;;;;;;;0.71;100.00;99995.88;2065267;28;20109;-64
2021/12/09 00:46:45;;;;;;;5.38;3.70;;;;;;;0.75;100.00;100002.66;2074055;28;20026;-63
2021/12/09 00:47:45;;;;;;;9.30;3.93;;;;;;;0.75;100.00;100000.09;2073958;28;20112;-64
2021/12/09 00:48:45;;;;;;;7.33;4.60;;;;;;;0.73;100.00;99999.28;2065088;28;20145;-64
2021/12/09 00:49:46;;;;;;;7.17;3.63;;;;;;;0.71;100.00;99997.59;2065191;28;20030;-65
2021/12/09 00:50:47;;;;;;;;;;;;;;;0.68;100.00;100001.06;2065618;28;20033;-64
2021/12/09 00:51:48;;;;;;;9.43;3.88;;;;;;;0.68;100.00;99995.94;2065134;28;19910;-64
2021/12/09 00:52:49;;;;;;;6.95;3.28;;;;;;;0.64;100.00;100005.41;2073898;28;20430;-64
2021/12/09 00:53:50;;;;;;;8.75;3.33;;;;;;;0.67;100.00;99994.25;2073844;28;20030;-64
2021/12/09 00:54:55;;;;;;;6.47;3.83;;;;;;;0.67;100.00;100001.94;2073826;28;20446;-65
2021/12/09 00:55:56;;;;;;;7.82;3.70;;;;;;;0.66;100.00;100005.38;2073863;28;20021;-65
2021/12/09 00:56:57;;;;;;;6.97;3.67;;;;;;;0.67;100.00;100003.66;2073823;28;20026;-65
2021/12/09 00:57:57;;;;;;;9.85;3.55;;;;;;;0.71;100.00;100003.59;2064988;28;20480;-64
2021/12/09 00:58:57;;;;;;;7.30;3.27;;;;;;;0.71;100.00;99997.59;2065064;28;20030;-65
2021/12/09 00:59:59;;;;;;;10.00;3.63;;;;;;;0.70;100.00;99994.19;2073818;28;20014;-64
2021/12/09 01:00:59;;;;;;;6.93;3.53;;;;;;;0.71;100.00;99995.88;2064989;28;20014;-64
2021/12/09 01:01:59;;;;;;;6.47;3.87;;;;;;;0.67;100.00;99999.38;2065106;28;20026;-64
2021/12/09 01:03:00;;;;;;;8.00;3.23;;;;;;;0.63;100.00;100002.88;2073782;28;20017;-64
2021/12/09 01:04:00;;;;;;;9.25;4.10;;;;;;;0.60;100.00;100002.91;2073644;28;20030;-64
2021/12/09 01:05:00;;;;;;;10.03;4.23;;;;;;;0.62;100.00;100004.56;2064946;28;20034;-65
2021/12/09 01:06:02;;;;;;;7.17;3.80;;;;;;;0.62;100.00;100003.75;2065065;28;20034;-65
2021/12/09 01:07:03;;;;;;;6.25;3.75;;;;;;;0.60;100.00;100010.59;2073728;28;20049;-64
2021/12/09 01:08:04;;;;;;;8.10;3.53;;;;;;;0.57;100.00;100008.06;2073605;28;20080;-65
2021/12/09 01:09:05;;;;;;;7.28;3.42;;;;;;;0.54;100.00;100008.97;2073441;28;20537;-64
2021/12/09 01:10:09;;;;;;;8.27;3.35;;;;;;;0.51;100.00;100007.31;2073159;28;20088;-65
2021/12/09 01:11:12;;;;;;;4.95;3.30;;;;;;;0.56;100.00;100008.94;2073782;28;20064;-65
2021/12/09 01:12:12;;;;;;;6.95;3.38;;;;;;;0.57;100.00;100002.94;2073668;28;20447;-65
2021/12/09 01:13:13;;;;;;;7.75;3.95;;;;;;;0.56;100.00;100006.38;2073681;28;20030;-64
2021/12/09 01:14:13;;;;;;;8.37;3.37;;;;;;;0.57;100.00;100013.22;2073715;28;20056;-64
2021/12/09 01:15:16;;;;;;;8.30;3.67;;;;;;;0.55;100.00;100009.81;2064904;28;20444;-64
2021/12/09 01:16:16;;;;;;;8.23;3.67;;;;;;;0.55;100.00;100009.81;2065352;28;20030;-65
2021/12/09 01:17:17;;;;;;;5.87;3.60;;;;;;;0.51;100.00;100009.00;2073678;28;20033;-65
2021/12/09 01:18:18;;;;;;;9.10;3.60;;;;;;;0.46;100.00;100016.78;2073790;28;20027;-64
2021/12/09 01:19:19;;;;;;;9.10;3.63;;;;;;;0.47;100.00;100012.50;2073675;28;20399;-65
2021/12/09 01:20:24;;;;;;;7.63;3.77;;;;;;;0.52;100.00;100015.88;2073656;28;20540;-64
2021/12/09 01:21:25;;;;;;;8.60;4.22;;;;;;;0.58;100.00;100020.91;2073691;28;20101;-64
2021/12/09 01:22:34;;;;;;;6.23;3.23;;;;;;;0.58;100.00;100020.91;2073664;28;20079;-64
2021/12/09 01:23:35;;;;;;;7.60;4.05;;;;;;;0.55;100.00;100014.97;2073555;28;20690;-64
2021/12/09 01:24:35;;;;;;;7.30;3.55;;;;;;;0.51;100.00;100017.56;2064863;28;20053;-64
2021/12/09 01:25:37;;;;;;;11.33;3.77;;;;;;;0.48;100.00;100020.16;2064886;28;20069;-65
2021/12/09 01:26:37;;;;;;;11.73;4.88;;;;;;;0.53;100.00;100021.81;2073607;28;20061;-64
2021/12/09 01:27:42;;;;;;;9.50;3.87;;;;;;;0.53;100.00;100014.97;2064827;28;20037;-65
2021/12/09 01:28:55;;;;;;;6.50;3.85;;;;;;;0.49;100.00;100016.75;2064621;28;20033;-64
2021/12/09 01:29:56;;;;;;;7.28;3.88;;;;;;;0.46;100.00;100011.66;2066555;28;20018;-65
2021/12/09 01:31:04;;;;;;;7.20;3.72;;;;;;;0.48;100.00;100016.78;2073542;28;20388;-64
2021/12/09 01:32:07;;;;;;;7.10;3.30;;;;;;;0.41;100.00;100013.41;2064804;28;20038;-65
2021/12/09 01:33:09;;;;;;;8.02;3.30;;;;;;;0.37;100.00;100019.47;2065103;28;20029;-64
2021/12/09 01:34:10;;;;;;;7.40;3.85;;;;;;;0.33;100.00;100022.94;2073520;28;20033;-64
2021/12/09 01:35:10;;;;;;;7.57;3.23;;;;;;;0.34;100.00;100022.09;2073595;28;20026;-64
2021/12/09 01:36:10;;;;;;;8.70;4.07;;;;;;;0.37;100.00;100016.91;2073575;28;20037;-64
2021/12/09 01:37:11;;;;;;;8.13;3.70;;;;;;;0.37;100.00;100032.31;2073538;28;20032;-64
2021/12/09 01:38:14;;;;;;;9.57;3.77;;;;;;;0.38;100.00;100018.63;2073652;28;20149;-63
2021/12/09 01:39:14;;;;;;;7.65;3.58;;;;;;;0.36;100.00;100018.63;2073517;28;20018;-65
2021/12/09 01:40:15;;;;;;;5.73;3.00;;;;;;;0.34;100.00;100033.19;2073449;28;20096;-65
2021/12/09 01:41:15;;;;;;;8.30;3.47;;;;;;;0.32;100.00;100024.69;2073519;28;20108;-65
2021/12/09 01:42:17;;;;;;;9.40;4.77;;;;;;;0.34;100.00;100022.09;2073555;28;20038;-64
2021/12/09 01:43:17;;;;;;;6.00;3.28;;;;;;;0.33;100.00;100026.38;2073478;28;20034;-64
2021/12/09 01:44:17;;;;;;;6.07;4.07;;;;;;;0.33;100.00;100021.25;2073348;28;20022;-65
2021/12/09 01:45:18;;;;;;;7.13;3.10;;;;;;;0.28;100.00;100023.03;2073525;28;20455;-64
2021/12/09 01:46:22;;;;;;;7.38;3.05;;;;;;;0.27;100.00;100020.47;2073452;28;20053;-64
2021/12/09 01:47:22;;;;;;;7.40;3.63;;;;;;;0.27;100.00;100020.47;2073517;28;20405;-65
2021/12/09 01:48:22;;;;;;;6.80;4.07;;;;;;;0.31;100.00;100017.00;2073381;28;20033;-64
2021/12/09 01:49:22;;;;;;;7.53;3.40;;;;;;;0.33;100.00;100016.09;2064734;28;20026;-64
2021/12/09 01:50:24;;;;;;;6.67;3.30;;;;;;;0.31;100.00;100017.00;2064885;28;20049;-64
2021/12/09 01:51:25;;;;;;;8.38;3.75;;;;;;;0.31;100.00;100017.00;2073445;28;20030;-64
2021/12/09 01:52:25;;;;;;;8.02;3.58;;;;;;;0.28;100.00;100017.03;2064618;28;20018;-64
2021/12/09 01:53:26;;;;;;;9.00;4.65;;;;;;;0.25;100.00;100018.75;2064820;28;20509;-64
2021/12/09 01:54:26;;;;;;;8.23;3.40;;;;;;;0.27;100.00;100016.19;2073597;28;20034;-64
2021/12/09 01:55:27;;;;;;;6.60;4.00;;;;;;;0.34;100.00;100014.41;2073507;28;20097;-64
2021/12/09 01:56:28;;;;;;;9.63;3.30;;;;;;;0.35;100.00;100016.09;2073565;28;20075;-64
2021/12/09 01:57:28;;;;;;;7.25;3.50;;;;;;;0.31;100.00;100017.00;2073476;28;20046;-64
2021/12/09 01:58:29;;;;;;;5.50;3.07;;;;;;;0.27;100.00;100011.03;2073519;28;20049;-65
2021/12/09 01:59:29;;;;;;;7.47;4.03;;;;;;;0.23;100.00;100010.25;2073506;28;20029;-65
2021/12/09 02:00:31;;;;;;;7.83;3.70;;;;;;;0.22;100.00;100012.81;2073546;28;20022;-65
2021/12/09 02:01:33;;;;;;;7.88;2.75;;;;;;;0.18;100.00;100019.72;2073385;28;20048;-65
2021/12/09 02:02:33;;;;;;;7.90;3.78;;;;;;;0.17;100.00;100017.19;2073412;28;20058;-65
2021/12/09 02:03:34;;;;;;;6.40;3.30;;;;;;;0.15;100.00;100016.34;2073491;28;20033;-64
2021/12/09 02:04:34;;;;;;;6.38;3.20;;;;;;;0.14;100.00;100018.06;2073351;28;20072;-64
2021/12/09 02:05:40;;;;;;;10.00;3.93;;;;;;;0.17;100.00;100019.75;2073511;28;20025;-64
2021/12/09 02:06:42;;;;;;;6.47;3.38;;;;;;;0.20;100.00;100019.72;2073492;28;20165;-64
2021/12/09 02:07:42;;;;;;;6.25;2.97;;;;;;;0.19;100.00;100016.28;2073444;28;20021;-64
2021/12/09 02:08:43;;;;;;;5.83;3.10;;;;;;;0.17;100.00;100020.56;2073397;28;20395;-64
2021/12/09 02:09:44;;;;;;;5.55;3.65;;;;;;;0.18;100.00;100017.16;2073458;28;20018;-64
2021/12/09 02:10:46;;;;;;;5.60;3.27;;;;;;;0.21;100.00;100021.41;2073508;28;20057;-64
2021/12/09 02:11:47;;;;;;;7.80;3.38;;;;;;;0.14;100.00;100020.63;2073485;28;20029;-64
2021/12/09 02:12:49;;;;;;;8.47;3.73;;;;;;;0.10;100.00;100016.41;2073490;28;20502;-64
2021/12/09 02:13:51;;;;;;;5.47;3.17;;;;;;;0.07;100.00;100019.84;2064709;28;20026;-65
2021/12/09 02:14:53;;;;;;;5.47;3.22;;;;;;;0.04;100.00;100019.03;2064789;28;20023;-65
2021/12/09 02:15:55;;;;;;;6.55;3.17;;;;;;;0.04;100.00;100013.91;2064937;28;20066;-64
2021/12/09 02:16:56;;;;;;;9.70;4.80;;;;;;;0.09;100.00;100013.00;2073412;28;20018;-65
2021/12/09 02:17:57;;;;;;;4.90;3.40;;;;;;;0.08;100.00;100010.44;2073476;28;20046;-64
2021/12/09 02:18:57;;;;;;;6.60;3.03;;;;;;;0.10;100.00;100011.28;2064654;28;20023;-64
2021/12/09 02:20:01;;;;;;;8.45;3.83;;;;;;;0.12;100.00;100012.97;2064751;28;20033;-64
2021/12/09 02:21:16;;;;;;;10.23;3.30;;;;;;;0.11;100.00;100015.53;2074038;28;20018;-64
2021/12/09 02:22:17;;;;;;;6.43;2.90;;;;;;;0.08;100.00;100013.00;2075072;28;20030;-63
2021/12/09 02:23:17;;;;;;;11.27;3.93;;;;;;;0.09;100.00;100012.13;2075078;28;20034;-64
2021/12/09 02:24:18;;;;;;;4.97;3.13;;;;;;;0.05;100.00;100006.19;2075057;28;20307;-64
2021/12/09 02:25:19;;;;;;;7.57;3.40;;;;;;;0.02;100.00;100010.50;2066306;28;20463;-64
2021/12/09 02:26:24;;;;;;;6.75;3.03;;;;;;;0.05;100.00;100007.91;2066359;28;20109;-63
2021/12/09 02:27:25;;;;;;;7.70;3.22;;;;;;;0.11;100.00;100015.53;2075020;28;20550;-64
2021/12/09 02:28:26;;;;;;;6.00;3.47;;;;;;;0.08;100.00;100010.44;2074958;28;20033;-64
2021/12/09 02:29:26;;;;;;;5.90;3.05;;;;;;;0.09;100.00;100013.00;2074937;28;20057;-64
2021/12/09 02:30:26;;;;;;;6.67;4.43;;;;;;;0.12;100.00;100006.97;2075027;28;20029;-64
2021/12/09 02:31:28;;;;;;;8.90;4.13;;;;;;;0.19;100.00;100003.47;2075010;28;20406;-64
2021/12/09 02:32:29;;;;;;;10.32;3.00;;;;;;;0.18;100.00;99998.34;2066175;28;20431;-65
2021/12/09 02:33:29;;;;;;;5.67;3.23;;;;;;;0.14;100.00;100007.81;2058092;28;20102;-64
2021/12/09 02:34:29;;;;;;;9.80;5.10;;;;;;;0.18;100.00;99999.19;2066310;28;20019;-64
2021/12/09 02:35:30;;;;;;;7.00;3.70;;;;;;;0.18;100.00;100000.91;2074886;28;20281;-65
2021/12/09 02:36:36;;;;;;;7.15;3.38;;;;;;;0.12;100.00;99996.69;2074998;28;20064;-64
2021/12/09 02:37:37;;;;;;;4.45;2.65;;;;;;;0.08;100.00;100005.31;2074968;28;20030;-65
2021/12/09 02:38:43;;;;;;;5.90;3.78;;;;;;;0.06;100.00;100005.31;2074937;28;20030;-65
2021/12/09 02:39:44;;;;;;;7.47;3.60;;;;;;;0.13;100.00;100011.22;2074962;28;20083;-65
2021/12/09 02:40:47;;;;;;;5.10;3.05;;;;;;;0.14;100.00;100009.50;2074987;28;20487;-64
2021/12/09 02:41:49;;;;;;;9.85;3.85;;;;;;;0.09;100.00;100007.00;2066028;28;20034;-64
2021/12/09 02:42:49;;;;;;;5.85;3.35;;;;;;;0.08;100.00;100010.44;2058059;28;20031;-64
2021/12/09 02:43:56;;;;;;;8.47;3.77;;;;;;;0.10;100.00;100006.16;2066146;28;20038;-65
2021/12/09 02:44:57;;;;;;;9.10;3.80;;;;;;;0.07;100.00;100004.44;2065951;28;20046;-64
2021/12/09 02:46:00;;;;;;;8.30;4.28;;;;;;;0.03;100.00;100012.22;2066050;28;20053;-64
2021/12/09 02:47:00;;;;;;;6.70;3.05;;;;;;;0.04;100.00;100006.22;2066509;28;20026;-65
2021/12/09 02:48:00;;;;;;;4.27;2.60;;;;;;;0.06;100.00;100007.88;2074755;28;20033;-64
2021/12/09 02:49:03;;;;;;;8.67;3.13;;;;;;;0.09;100.00;100007.00;2066081;28;20515;-64
2021/12/09 02:50:04;;;;;;;7.80;3.22;;;;;;;0.10;100.00;100009.53;2066286;28;20053;-64
2021/12/09 02:51:06;;;;;;;7.63;3.22;;;;;;;0.14;100.00;100020.63;2074778;28;20112;-64
2021/12/09 02:52:06;;;;;;;7.80;3.20;;;;;;;0.14;100.00;100012.09;2074863;28;20196;-64
2021/12/09 02:53:07;;;;;;;9.05;3.72;;;;;;;0.12;100.00;100018.09;2074726;28;20030;-64
2021/12/09 02:54:09;;;;;;;5.87;3.40;;;;;;;0.09;100.00;100013.00;2074843;28;20451;-65
2021/12/09 02:55:10;;;;;;;7.03;3.38;;;;;;;0.11;100.00;100007.84;2074818;28;20284;-63
2021/12/09 02:56:12;;;;;;;8.97;4.30;;;;;;;0.20;100.00;100014.59;2074821;28;20076;-64
2021/12/09 02:57:13;;;;;;;13.73;4.47;;;;;;;0.16;100.00;100005.19;2074752;28;20077;-64
2021/12/09 02:58:14;;;;;;;10.18;3.03;;;;;;;0.11;100.00;100013.81;2074786;28;20456;-64
2021/12/09 02:59:14;;;;;;;6.13;3.30;;;;;;;0.12;100.00;100010.38;2074702;28;20026;-64
2021/12/09 03:00:15;;;;;;;6.82;4.25;;;;;;;0.12;100.00;100018.09;2074795;28;20048;-65
2021/12/09 03:01:19;;;;;;;8.77;3.10;;;;;;;0.09;100.00;100010.41;2074699;28;20037;-65
2021/12/09 03:02:20;;;;;;;8.63;3.50;;;;;;;0.05;100.00;100011.31;2074741;28;20466;-65
2021/12/09 03:03:20;;;;;;;4.55;3.00;;;;;;;0.05;100.00;100024.16;2074652;28;20030;-65
2021/12/09 03:04:20;;;;;;;9.40;2.87;;;;;;;0.04;100.00;100012.22;2065993;28;20507;-65
2021/12/09 03:05:21;;;;;;;9.20;3.23;;;;;;;0.04;100.00;100019.03;2065962;28;20032;-64
2021/12/09 03:06:32;;;;;;;7.10;2.50;;;;;;;0.04;100.00;100026.75;2074630;28;20048;-64
2021/12/09 03:07:36;;;;;;;6.70;3.13;;;;;;;0.06;100.00;100023.28;2074683;28;20029;-64
2021/12/09 03:08:37;;;;;;;6.03;3.05;;;;;;;0.06;100.00;100017.28;2074543;28;20076;-64
2021/12/09 03:09:48;;;;;;;;;;;;;;;0.09;100.00;100017.25;2075122;28;20030;-64
2021/12/09 03:10:48;;;;;;;9.18;3.17;;;;;;;0.08;100.00;100016.44;2074681;28;19913;-64
2021/12/09 03:11:54;;;;;;;5.37;2.97;;;;;;;0.05;100.00;100025.88;2074614;28;20120;-64
2021/12/09 03:12:58;;;;;;;7.80;2.50;;;;;;;0.08;100.00;100025.84;2074619;28;20101;-65
2021/12/09 03:13:59;;;;;;;6.43;3.10;;;;;;;0.09;100.00;100032.66;2074578;28;20391;-64
2021/12/09 03:15:02;;;;;;;6.85;3.15;;;;;;;0.11;100.00;100020.66;2074496;28;20101;-64
2021/12/09 03:16:03;;;;;;;5.80;3.10;;;;;;;0.13;100.00;100021.47;2074505;28;20403;-65
2021/12/09 03:17:04;;;;;;;7.90;3.15;;;;;;;0.11;100.00;100026.63;2074539;28;20060;-65
2021/12/09 03:18:04;;;;;;;6.77;2.87;;;;;;;0.13;100.00;100034.31;2074451;28;20026;-65
2021/12/09 03:19:07;;;;;;;5.10;2.70;;;;;;;0.17;100.00;100035.97;2065951;28;20133;-65
2021/12/09 03:20:10;;;;;;;6.10;2.63;;;;;;;0.15;100.00;100034.31;2058201;28;20360;-65
2021/12/09 03:21:26;;;;;;;8.38;3.10;;;;;;;0.13;100.00;100036.88;2066157;28;20082;-65
2021/12/09 03:22:27;;;;;;;6.93;2.65;;;;;;;0.15;100.00;100026.59;2074632;28;20159;-65
2021/12/09 03:23:28;;;;;;;7.37;3.53;;;;;;;0.14;100.00;100036.03;2074590;28;20497;-65
2021/12/09 03:24:29;;;;;;;7.15;3.05;;;;;;;0.13;100.00;100034.31;2074663;28;20482;-65
2021/12/09 03:25:29;;;;;;;5.93;2.47;;;;;;;0.08;100.00;100034.41;2065892;28;20026;-65
2021/12/09 03:26:39;;;;;;;5.20;2.75;;;;;;;0.09;100.00;100032.66;2065987;28;20352;-65
2021/12/09 03:27:39;;;;;;;6.15;2.65;;;;;;;0.08;100.00;100041.22;2074529;28;20113;-65
2021/12/09 03:28:40;;;;;;;6.50;3.17;;;;;;;0.08;100.00;100036.09;2065731;28;20029;-64
2021/12/09 03:29:40;;;;;;;5.73;2.40;;;;;;;0.03;100.00;100037.88;2065820;28;20112;-65
2021/12/09 03:30:41;;;;;;;8.03;2.67;;;;;;;0.05;100.00;100046.38;2074413;28;20337;-65
2021/12/09 03:31:43;;;;;;;9.90;3.00;;;;;;;0.06;100.00;100048.06;2074485;28;20034;-65
2021/12/09 03:32:44;;;;;;;9.43;2.67;;;;;;;0.05;100.00;100052.38;2073484;28;20053;-65
2021/12/09 03:33:45;;;;;;;6.38;2.83;;;;;;;-0.01;100.00;100052.44;2074496;28;20034;-64
2021/12/09 03:34:46;;;;;;;3.87;2.60;;;;;;;-0.07;100.00;100053.34;2074425;28;20387;-65
2021/12/09 03:35:56;;;;;;;4.03;2.38;;;;;;;-0.07;100.00;100045.66;2074483;28;20072;-65
2021/12/09 03:36:59;;;;;;;7.95;2.67;;;;;;;-0.07;100.00;100048.22;2074533;28;20025;-64
2021/12/09 03:38:00;;;;;;;5.30;2.63;;;;;;;-0.07;100.00;100049.97;2074458;28;20109;-64
2021/12/09 03:39:05;;;;;;;6.28;3.20;;;;;;;-0.08;100.00;100046.53;2074400;28;20021;-64
2021/12/09 03:40:07;;;;;;;7.28;2.78;;;;;;;-0.03;100.00;100049.88;2074502;28;20522;-64
2021/12/09 03:41:08;;;;;;;5.65;2.85;;;;;;;0.01;100.00;100050.72;2074459;28;20475;-64
2021/12/09 03:42:12;;;;;;;5.60;2.50;;;;;;;0.07;100.00;100053.19;2074347;28;20053;-64
2021/12/09 03:43:13;;;;;;;8.40;3.22;;;;;;;0.06;100.00;100048.06;2074440;28;20292;-64
2021/12/09 03:44:13;;;;;;;7.40;2.77;;;;;;;0.07;100.00;100047.25;2074278;28;20040;-63
2021/12/09 03:45:14;;;;;;;6.60;2.78;;;;;;;0.09;100.00;100045.47;2074382;28;20030;-63
2021/12/09 03:46:17;;;;;;;6.25;2.38;;;;;;;0.14;100.00;100045.44;2074448;28;20061;-64
2021/12/09 03:47:20;;;;;;;8.15;2.58;;;;;;;0.16;100.00;100039.41;2074450;28;20021;-63
2021/12/09 03:48:25;;;;;;;4.63;2.42;;;;;;;0.17;100.00;100043.66;2074260;28;20025;-64
2021/12/09 03:49:26;;;;;;;4.93;2.25;;;;;;;0.17;100.00;100051.38;2074234;28;20069;-64
2021/12/09 03:50:26;;;;;;;5.93;2.30;;;;;;;0.22;100.00;100049.63;2074393;28;20402;-64
2021/12/09 03:51:26;;;;;;;5.77;3.43;;;;;;;0.23;100.00;100046.19;2074415;28;20057;-65
2021/12/09 03:52:28;;;;;;;5.17;2.93;;;;;;;0.21;100.00;100042.75;2074613;28;20029;-64
2021/12/09 03:53:29;;;;;;;4.18;2.45;;;;;;;0.19;100.00;100043.66;2074268;28;20059;-64
2021/12/09 03:54:30;;;;;;;4.68;2.35;;;;;;;0.17;100.00;100059.06;2074328;28;20044;-64
2021/12/09 03:55:30;;;;;;;6.45;2.42;;;;;;;0.14;100.00;100061.69;2065574;28;20018;-66
2021/12/09 03:56:32;;;;;;;5.33;2.40;;;;;;;0.15;100.00;100063.38;2065651;28;20101;-65
2021/12/09 03:57:33;;;;;;;5.72;2.70;;;;;;;0.14;100.00;100060.84;2074318;28;20467;-64
2021/12/09 03:58:33;;;;;;;5.35;2.80;;;;;;;0.16;100.00;100059.09;2074317;28;20029;-65
2021/12/09 03:59:34;;;;;;;7.80;3.03;;;;;;;0.18;100.00;100058.22;2074375;28;20017;-64
2021/12/09 04:00:34;;;;;;;3.87;2.03;;;;;;;0.17;100.00;100065.94;2065546;28;20495;-64
2021/12/09 04:01:37;;;;;;;4.43;2.33;;;;;;;0.16;100.00;100070.22;2065655;28;20297;-64
2021/12/09 04:02:37;;;;;;;5.00;2.58;;;;;;;0.18;100.00;100065.91;2074273;28;20339;-64
2021/12/09 04:03:38;;;;;;;7.43;2.72;;;;;;;0.19;100.00;100064.19;2065622;28;20442;-64
2021/12/09 04:04:39;;;;;;;10.60;2.90;;;;;;;0.14;100.00;100065.97;2065642;28;20081;-64
2021/12/09 04:05:39;;;;;;;11.68;3.13;;;;;;;0.15;100.00;100062.53;2074273;28;20056;-64
2021/12/09 04:06:40;;;;;;;6.73;2.83;;;;;;;0.17;100.00;100056.50;2074190;28;20498;-64
2021/12/09 04:07:40;;;;;;;5.82;2.10;;;;;;;0.19;100.00;100059.91;2074207;28;20108;-65
2021/12/09 04:08:40;;;;;;;7.90;2.93;;;;;;;0.19;100.00;100059.91;2074323;28;20026;-64
2021/12/09 04:09:40;;;;;;;8.63;2.73;;;;;;;0.17;100.00;100060.81;2074331;28;20092;-64
2021/12/09 04:10:42;;;;;;;7.90;2.37;;;;;;;0.13;100.00;100052.28;2074288;28;20037;-65
2021/12/09 04:11:43;;;;;;;6.90;2.22;;;;;;;0.10;100.00;100045.47;2074241;28;20026;-65
2021/12/09 04:12:43;;;;;;;7.88;2.67;;;;;;;0.09;100.00;100053.19;2074363;28;20376;-65
2021/12/09 04:13:44;;;;;;;6.38;2.63;;;;;;;0.08;100.00;100049.78;2074184;28;20080;-64
2021/12/09 04:14:44;;;;;;;5.80;2.17;;;;;;;0.11;100.00;100047.16;2074246;28;20105;-64
2021/12/09 04:15:44;;;;;;;5.57;3.43;;;;;;;0.07;100.00;100045.50;2074163;28;20030;-65
2021/12/09 04:16:45;;;;;;;6.80;2.07;;;;;;;0.01;100.00;100039.59;2074127;28;20021;-64
2021/12/09 04:17:46;;;;;;;6.68;2.97;;;;;;;-0.01;100.00;100043.03;2074070;28;20280;-64
2021/12/09 04:18:46;;;;;;;4.07;2.40;;;;;;;0.02;100.00;100046.41;2074174;28;20353;-64
2021/12/09 04:19:47;;;;;;;6.93;2.30;;;;;;;-0.01;100.00;100043.03;2074078;28;20036;-64
2021/12/09 04:20:49;;;;;;;5.82;2.20;;;;;;;0.03;100.00;100051.53;2074150;28;20045;-64
2021/12/09 04:21:50;;;;;;;5.97;2.60;;;;;;;0.03;100.00;100053.28;2074085;28;20479;-65
2021/12/09 04:22:50;;;;;;;6.18;2.13;;;;;;;0.01;100.00;100050.72;2074117;28;20504;-64
2021/12/09 04:23:50;;;;;;;6.17;2.40;;;;;;;-0.01;100.00;100043.03;2074074;28;20033;-63
2021/12/09 04:24:52;;;;;;;6.83;2.67;;;;;;;-0.01;100.00;100047.31;2074174;28;20075;-64
2021/12/09 04:25:52;;;;;;;6.50;2.35;;;;;;;0.01;100.00;100055.84;2065477;28;20018;-64
2021/12/09 04:26:53;;;;;;;6.83;2.50;;;;;;;-0.02;100.00;100056.75;2065476;28;20153;-63
2021/12/09 04:27:55;;;;;;;8.57;2.92;;;;;;;0.02;100.00;100061.81;2074100;28;20076;-64
2021/12/09 04:28:55;;;;;;;6.45;2.05;;;;;;;-0.01;100.00;100062.69;2073995;28;20479;-64
2021/12/09 04:29:55;;;;;;;7.57;2.60;;;;;;;-0.02;100.00;100056.75;2074059;28;20037;-64
2021/12/09 04:30:56;;;;;;;8.33;2.40;;;;;;;-0.01;100.00;100055.88;2074129;28;20468;-64
2021/12/09 04:31:56;;;;;;;5.70;2.00;;;;;;;-0.02;100.00;100061.88;2074062;28;20092;-64
2021/12/09 04:32:56;;;;;;;4.53;2.60;;;;;;;-0.02;100.00;100061.88;2074034;28;20022;-64
2021/12/09 04:33:57;;;;;;;6.40;2.10;;;;;;;0.02;100.00;100066.94;2074014;28;20028;-63
2021/12/09 04:34:57;;;;;;;8.02;2.25;;;;;;;0.01;100.00;100062.69;2074006;28;20067;-64
2021/12/09 04:35:58;;;;;;;6.17;2.30;;;;;;;0.04;100.00;100065.22;2074046;28;20025;-64
2021/12/09 04:36:59;;;;;;;3.63;2.00;;;;;;;0.07;100.00;100071.16;2074055;28;20020;-64
2021/12/09 04:38:00;;;;;;;;;;;;;;;0.05;100.00;100072.91;2074400;28;20024;-64
2021/12/09 04:39:00;;;;;;;6.68;2.58;;;;;;;0.10;100.00;100065.16;2073944;28;19916;-64
2021/12/09 04:40:01;;;;;;;4.80;2.03;;;;;;;0.08;100.00;100072.03;2065373;28;20030;-64
2021/12/09 04:41:01;;;;;;;6.27;2.70;;;;;;;0.11;100.00;100070.25;2065323;28;20098;-64
2021/12/09 04:42:03;;;;;;;4.97;2.27;;;;;;;0.10;100.00;100070.31;2073836;28;20280;-64
2021/12/09 04:43:03;;;;;;;3.85;2.10;;;;;;;0.11;100.00;100079.69;2073984;28;20029;-63
2021/12/09 04:44:05;;;;;;;5.18;1.80;;;;;;;0.13;100.00;100070.25;2073750;28;20220;-63
2021/12/09 04:45:07;;;;;;;5.43;2.15;;;;;;;0.10;100.00;100075.44;2073916;28;20470;-64
2021/12/09 04:46:07;;;;;;;5.88;2.30;;;;;;;0.06;100.00;100064.34;2065181;28;20058;-64
2021/12/09 04:47:08;;;;;;;3.63;2.20;;;;;;;0.02;100.00;100067.81;2065307;28;20053;-64